Time;durP1;ratioP1;P1;durP2;ratioP2;P2;SDS_P1;SDS_P2;PMS_P1;PMS_P2;Temp;Humidity;BMP_temperature;BMP_pressure;BME280_temperature;BME280_humidity;BME280_pressure;Samples;Min_cycle;Max_cycle;Signal;HPM_P1;HPM_P2
2023/11/03 00:01:18;;;;;;;;;;;;;;;21.23;55.70;100029.06;7394905;19;1716;-47
2023/11/03 00:03:47;;;;;;;;;;;;;;;21.22;55.79;100038.13;7394444;19;1532;-47
2023/11/03 00:06:15;;;;;;;;;;;;;;;21.21;55.50;100025.69;7393716;19;1481;-47
2023/11/03 00:08:46;;;;;;;;;;;;;;;21.19;55.75;100016.97;7392794;19;1844;-47
2023/11/03 00:11:15;;;;;;;;;;;;;;;21.15;55.84;99999.47;7392676;19;1534;-48
2023/11/03 00:13:44;;;;;;;;;;;;;;;21.18;55.64;100002.66;7394340;19;1528;-48
2023/11/03 00:16:13;;;;;;;;;;;;;;;21.17;55.88;99990.25;7393954;19;1707;-48
2023/11/03 00:18:41;;;;;;;;;;;;;;;21.16;55.80;99974.28;7379643;19;1525;-47
2023/11/03 00:21:09;;;;;;;;;;;;;;;21.21;55.68;99988.06;7391698;19;1828;-48
2023/11/03 00:23:38;;;;;;;;;;;;;;;21.17;55.81;99984.00;7393552;19;1571;-47
2023/11/03 00:26:10;;;;;;;;;;;;;;;21.20;55.59;99997.13;7394959;19;1855;-50
2023/11/03 00:28:40;;;;;;;;;;;;;;;21.20;55.62;99984.50;7392618;19;1842;-48
2023/11/03 00:31:08;;;;;;;;;;;;;;;21.19;55.59;99993.59;7392879;19;1818;-48
2023/11/03 00:33:36;;;;;;;;;;;;;;;21.18;55.91;99989.22;7393792;19;1389;-47
2023/11/03 00:36:06;;;;;;;;;;;;;;;21.11;56.00;99973.91;7392339;19;1796;-48
2023/11/03 00:38:34;;;;;;;;;;;;;;;21.17;55.96;99970.56;7392197;19;1836;-48
2023/11/03 00:41:02;;;;;;;;;;;;;;;21.13;55.89;99966.53;7393326;19;1612;-47
2023/11/03 00:43:33;;;;;;;;;;;;;;;21.17;55.88;99975.94;7393174;19;1480;-48
2023/11/03 00:46:03;;;;;;;;;;;;;;;21.13;55.95;99953.09;7391617;19;1717;-47
2023/11/03 00:48:31;;;;;;;;;;;;;;;21.12;55.95;99956.78;7392491;19;1846;-47
2023/11/03 00:50:59;;;;;;;;;;;;;;;21.20;55.75;99963.00;7393441;19;1478;-47
2023/11/03 00:53:27;;;;;;;;;;;;;;;21.18;56.00;99980.31;7393275;19;1583;-48
2023/11/03 00:55:56;;;;;;;;;;;;;;;21.16;55.63;99979.66;7395110;19;1394;-48
2023/11/03 00:58:24;;;;;;;;;;;;;;;21.24;55.51;99979.63;7392358;19;1571;-48
2023/11/03 01:00:55;;;;;;;;;;;;;;;21.16;55.97;99990.41;7392623;19;1564;-47
2023/11/03 01:03:24;;;;;;;;;;;;;;;21.21;55.75;99986.19;7392126;19;1497;-47
2023/11/03 01:05:53;;;;;;;;;;;;;;;21.16;55.86;100001.16;7393641;19;1824;-47
2023/11/03 01:08:22;;;;;;;;;;;;;;;21.20;55.66;100006.03;7390045;19;1891;-47
2023/11/03 01:10:50;;;;;;;;;;;;;;;21.18;55.80;99993.75;7391404;19;1683;-47
2023/11/03 01:13:21;;;;;;;;;;;;;;;21.18;55.97;99993.75;7391843;19;1564;-47
2023/11/03 01:15:51;;;;;;;;;;;;;;;21.13;56.11;99994.28;7389750;19;1303;-48
2023/11/03 01:18:22;;;;;;;;;;;;;;;21.12;56.06;99978.31;7377068;19;1584;-48
2023/11/03 01:20:51;;;;;;;;;;;;;;;21.09;56.03;99981.31;7392942;19;1616;-47
2023/11/03 01:23:20;;;;;;;;;;;;;;;21.18;55.97;99969.56;7392173;19;1527;-47
2023/11/03 01:25:50;;;;;;;;;;;;;;;21.12;55.89;99981.00;7394022;19;1318;-47
2023/11/03 01:28:18;;;;;;;;;;;;;;;21.08;55.98;99971.59;7391042;19;1857;-47
2023/11/03 01:30:47;;;;;;;;;;;;;;;21.11;56.02;99976.59;7392428;19;1464;-47
2023/11/03 01:33:15;;;;;;;;;;;;;;;21.05;55.98;99968.22;7391464;19;1863;-47
2023/11/03 01:35:46;;;;;;;;;;;;;;;21.11;56.07;99971.22;7391186;19;1544;-47
2023/11/03 01:38:14;;;;;;;;;;;;;;;21.12;55.83;99970.25;7391850;19;1630;-47
2023/11/03 01:40:43;;;;;;;;;;;;;;;21.11;55.92;99982.00;7391344;19;1533;-47
2023/11/03 01:43:11;;;;;;;;;;;;;;;21.10;55.94;99966.88;7391637;19;1564;-47
2023/11/03 01:45:40;;;;;;;;;;;;;;;21.08;56.05;99977.78;7391785;19;1461;-47
2023/11/03 01:48:08;;;;;;;;;;;;;;;21.09;56.12;99973.25;7391484;19;1526;-55
2023/11/03 01:50:42;;;;;;;;;;;;;;;21.09;56.05;99984.00;7390018;19;1930;-47
2023/11/03 01:53:13;;;;;;;;;;;;;;;21.09;55.83;99984.00;7390901;19;1858;-47
2023/11/03 01:55:42;;;;;;;;;;;;;;;21.09;56.31;99970.56;7393118;19;1767;-47
2023/11/03 01:58:10;;;;;;;;;;;;;;;21.08;56.23;99982.34;7398336;19;1566;-47
2023/11/03 02:00:38;;;;;;;;;;;;;;;21.05;56.08;99984.34;7398190;19;1678;-66
2023/11/03 02:03:07;;;;;;;;;;;;;;;21.07;56.10;99984.19;7398829;19;1497;-54
2023/11/03 02:05:35;;;;;;;;;;;;;;;21.09;56.24;99992.06;7398202;19;1513;-47
2023/11/03 02:08:03;;;;;;;;;;;;;;;21.06;56.30;99983.34;7398652;19;1591;-47
2023/11/03 02:10:35;;;;;;;;;;;;;;;21.11;56.18;99988.22;7395602;19;1854;-47
2023/11/03 02:13:04;;;;;;;;;;;;;;;21.11;56.11;99992.75;7398358;19;1796;-47
2023/11/03 02:15:32;;;;;;;;;;;;;;;21.08;56.30;99976.97;7399129;19;1821;-47
2023/11/03 02:18:00;;;;;;;;;;;;;;;21.06;56.24;99969.06;7381404;19;1965;-48
2023/11/03 02:20:29;;;;;;;;;;;;;;;21.06;56.25;99969.06;7398526;19;1929;-47
2023/11/03 02:23:00;;;;;;;;;;;;;;;21.03;56.13;99938.00;7394980;19;1473;-47
2023/11/03 02:25:29;;;;;;;;;;;;;;;21.08;56.16;99953.59;7398921;19;1611;-48
2023/11/03 02:27:57;;;;;;;;;;;;;;;21.08;56.17;99947.41;7396923;19;1671;-48
2023/11/03 02:30:25;;;;;;;;;;;;;;;21.04;56.35;99945.03;7394654;19;1844;-47
2023/11/03 02:32:54;;;;;;;;;;;;;;;21.09;56.09;99957.13;7397273;19;1726;-47
2023/11/03 02:35:22;;;;;;;;;;;;;;;21.16;55.78;99968.88;7397414;19;1727;-47
2023/11/03 02:37:50;;;;;;;;;;;;;;;21.09;56.05;99952.59;7397222;19;1593;-47
2023/11/03 02:40:21;;;;;;;;;;;;;;;21.11;55.79;99938.97;7397422;19;1449;-47
2023/11/03 02:42:49;;;;;;;;;;;;;;;21.03;55.93;99937.16;7396995;19;1455;-47
2023/11/03 02:45:18;;;;;;;;;;;;;;;21.12;55.87;99935.28;7396163;19;1768;-47
2023/11/03 02:47:43;;;;;;;;;;;;;;;21.00;56.13;99932.94;7397578;19;1830;-47
2023/11/03 02:50:12;;;;;;;;;;;;;;;21.03;56.10;99931.78;7395695;19;1854;-48
2023/11/03 02:52:40;;;;;;;;;;;;;;;21.03;56.21;99935.31;7396866;19;1819;-47
2023/11/03 02:55:09;;;;;;;;;;;;;;;21.04;56.20;99939.66;7397291;19;1727;-47
2023/11/03 02:57:40;;;;;;;;;;;;;;;21.02;56.22;99920.16;7396346;19;1800;-47
2023/11/03 03:00:09;;;;;;;;;;;;;;;21.04;56.17;99936.97;7398030;19;1584;-47
2023/11/03 03:02:38;;;;;;;;;;;;;;;21.06;56.04;99951.06;7398147;19;1730;-47
2023/11/03 03:05:07;;;;;;;;;;;;;;;21.05;55.99;99946.72;7396533;19;1517;-47
2023/11/03 03:07:35;;;;;;;;;;;;;;;20.98;56.18;99944.88;7396191;19;1319;-47
2023/11/03 03:10:04;;;;;;;;;;;;;;;21.02;55.93;99936.28;7395114;19;1849;-47
2023/11/03 03:12:33;;;;;;;;;;;;;;;21.03;56.10;99926.41;7395367;19;1870;-47
2023/11/03 03:15:04;;;;;;;;;;;;;;;20.99;56.16;99909.78;7396614;19;1504;-47
2023/11/03 03:17:32;;;;;;;;;;;;;;;20.98;56.05;99901.88;7396460;19;1912;-47
2023/11/03 03:20:01;;;;;;;;;;;;;;;20.93;56.27;99883.56;7381860;19;1522;-48
2023/11/03 03:22:29;;;;;;;;;;;;;;;20.95;56.38;99878.88;7395114;19;1401;-47
2023/11/03 03:24:57;;;;;;;;;;;;;;;20.98;56.25;99870.44;7395968;19;1798;-47
2023/11/03 03:27:26;;;;;;;;;;;;;;;20.94;56.25;99879.88;7395751;19;1615;-47
2023/11/03 03:29:54;;;;;;;;;;;;;;;20.92;56.36;99860.38;7394556;19;1856;-47
2023/11/03 03:32:25;;;;;;;;;;;;;;;20.96;56.27;99864.41;7393715;19;1409;-48
2023/11/03 03:34:54;;;;;;;;;;;;;;;20.94;56.35;99862.91;7396216;19;1532;-47
2023/11/03 03:37:22;;;;;;;;;;;;;;;20.98;55.99;99867.75;7394289;19;1456;-48
2023/11/03 03:39:50;;;;;;;;;;;;;;;21.01;56.22;99875.50;7394810;19;1370;-47
2023/11/03 03:42:19;;;;;;;;;;;;;;;20.97;56.16;99862.53;7393973;19;1554;-47
2023/11/03 03:44:47;;;;;;;;;;;;;;;20.95;56.07;99864.56;7394969;19;2133;-48
2023/11/03 03:47:16;;;;;;;;;;;;;;;20.96;56.00;99856.34;7394579;19;1570;-47
2023/11/03 03:49:47;;;;;;;;;;;;;;;20.97;56.23;99859.88;7394067;19;1845;-47
2023/11/03 03:52:15;;;;;;;;;;;;;;;21.01;56.06;99859.38;7392386;19;1457;-47
2023/11/03 03:54:43;;;;;;;;;;;;;;;20.95;55.93;99867.25;7395105;19;1462;-48
2023/11/03 03:57:12;;;;;;;;;;;;;;;20.99;56.10;99864.06;7394873;19;1459;-47
2023/11/03 03:59:40;;;;;;;;;;;;;;;21.04;55.79;99859.00;7395275;19;1515;-48
2023/11/03 04:02:08;;;;;;;;;;;;;;;21.03;55.99;99857.34;7394219;19;1395;-47
2023/11/03 04:04:36;;;;;;;;;;;;;;;21.04;55.99;99867.06;7394477;19;1813;-48
2023/11/03 04:07:07;;;;;;;;;;;;;;;21.03;56.05;99864.59;7394728;19;1786;-47
2023/11/03 04:09:36;;;;;;;;;;;;;;;21.05;55.85;99866.09;7393491;19;1850;-47
2023/11/03 04:12:04;;;;;;;;;;;;;;;21.08;56.02;99856.81;7393170;19;1529;-47
2023/11/03 04:14:32;;;;;;;;;;;;;;;21.06;55.88;99835.50;7391710;19;1466;-47
2023/11/03 04:17:01;;;;;;;;;;;;;;;21.02;55.87;99839.53;7393966;19;1461;-48
2023/11/03 04:19:29;;;;;;;;;;;;;;;20.96;56.20;99834.84;7376612;19;1591;-47
2023/11/03 04:21:57;;;;;;;;;;;;;;;20.95;56.13;99837.69;7391732;19;1743;-47
2023/11/03 04:24:28;;;;;;;;;;;;;;;20.96;55.99;99836.69;7394085;19;1961;-47
2023/11/03 04:26:56;;;;;;;;;;;;;;;20.95;56.21;99824.25;7394825;19;1380;-48
2023/11/03 04:29:25;;;;;;;;;;;;;;;20.95;56.02;99843.94;7392823;19;1857;-47
2023/11/03 04:31:53;;;;;;;;;;;;;;;21.00;56.16;99851.47;7392967;19;1501;-47
2023/11/03 04:34:21;;;;;;;;;;;;;;;20.93;56.42;99848.63;7394356;19;1437;-47
2023/11/03 04:36:50;;;;;;;;;;;;;;;20.91;56.43;99837.22;7393636;19;1349;-47
2023/11/03 04:39:18;;;;;;;;;;;;;;;21.01;56.25;99820.91;7392298;19;1826;-47
2023/11/03 04:41:49;;;;;;;;;;;;;;;21.06;56.45;99810.47;7390424;19;1608;-47
2023/11/03 04:44:18;;;;;;;;;;;;;;;21.05;57.22;99823.06;7391382;19;1616;-47
2023/11/03 04:46:46;;;;;;;;;;;;;;;21.15;57.93;99825.56;7385481;19;1544;-47
2023/11/03 04:49:14;;;;;;;;;;;;;;;21.20;57.61;99835.78;7392911;19;1896;-47
2023/11/03 04:51:43;;;;;;;;;;;;;;;21.08;58.10;99837.19;7393224;19;1411;-46
2023/11/03 04:54:11;;;;;;;;;;;;;;;20.90;59.32;99838.22;7392770;19;1484;-46
2023/11/03 04:56:40;;;;;;;;;;;;;;;20.85;58.84;99824.47;7392643;19;1329;-48
2023/11/03 04:59:12;;;;;;;;;;;;;;;21.06;58.38;99810.47;7391470;19;1481;-47
2023/11/03 05:01:41;;;;;;;;;;;;;;;21.20;58.00;99811.59;7394196;19;1559;-47
2023/11/03 05:04:09;;;;;;;;;;;;;;;21.08;58.32;99819.19;7393912;19;1965;-47
2023/11/03 05:06:37;;;;;;;;;;;;;;;21.15;57.93;99833.63;7393312;19;1841;-47
2023/11/03 05:09:06;;;;;;;;;;;;;;;21.16;57.84;99834.47;7392492;19;1871;-47
2023/11/03 05:11:34;;;;;;;;;;;;;;;21.16;57.70;99831.78;7391070;19;1846;-47
2023/11/03 05:14:03;;;;;;;;;;;;;;;21.13;57.58;99840.16;7391489;19;1573;-47
2023/11/03 05:16:34;;;;;;;;;;;;;;;21.14;57.64;99836.50;7393053;19;1668;-47
2023/11/03 05:19:03;;;;;;;;;;;;;;;21.17;57.34;99830.75;7377178;19;1554;-47
2023/11/03 05:21:31;;;;;;;;;;;;;;;21.14;57.32;99831.13;7393825;19;1524;-47
2023/11/03 05:24:00;;;;;;;;;;;;;;;21.14;57.14;99821.19;7331825;19;13711;-47
2023/11/03 05:26:28;;;;;;;;;;;;;;;21.15;57.50;99808.56;7393623;19;1529;-47
2023/11/03 05:28:57;;;;;;;;;;;;;;;21.23;56.98;99811.25;7393801;19;1225;-47
2023/11/03 05:31:25;;;;;;;;;;;;;;;21.21;57.17;99805.22;7395851;19;1853;-47
2023/11/03 05:33:56;;;;;;;;;;;;;;;21.23;57.24;99809.41;7399871;19;1497;-48
2023/11/03 05:36:24;;;;;;;;;;;;;;;21.16;57.07;99797.66;7400458;19;1541;-47
2023/11/03 05:38:53;;;;;;;;;;;;;;;21.15;57.44;99805.88;7398309;19;1568;-47
2023/11/03 05:41:21;;;;;;;;;;;;;;;21.00;57.58;99817.34;7396536;19;1572;-46
2023/11/03 05:43:50;;;;;;;;;;;;;;;21.10;57.95;99824.41;7399639;19;1446;-47
2023/11/03 05:46:18;;;;;;;;;;;;;;;21.25;57.59;99831.59;7400236;19;1553;-46
2023/11/03 05:48:46;;;;;;;;;;;;;;;21.13;58.17;99840.16;7399151;19;1505;-46
2023/11/03 05:51:17;;;;;;;;;;;;;;;21.11;58.29;99834.13;7396496;19;1841;-46
2023/11/03 05:53:45;;;;;;;;;;;;;;;21.35;57.50;99850.22;7399487;19;1591;-46
2023/11/03 05:56:14;;;;;;;;;;;;;;;21.28;57.59;99841.16;7398499;19;1284;-46
2023/11/03 05:58:42;;;;;;;;;;;;;;;21.15;57.48;99840.84;7397775;19;1498;-46
2023/11/03 06:01:11;;;;;;;;;;;;;;;20.99;57.83;99821.06;7399005;19;1530;-47
2023/11/03 06:03:39;;;;;;;;;;;;;;;20.97;58.08;99815.03;7399155;19;1524;-48
2023/11/03 06:06:09;;;;;;;;;;;;;;;21.03;57.58;99782.09;7399467;19;1580;-47
2023/11/03 06:08:40;;;;;;;;;;;;;;;21.15;56.94;99769.13;7398475;19;1584;-47
2023/11/03 06:11:08;;;;;;;;;;;;;;;21.29;56.94;99781.00;7394039;19;1847;-47
2023/11/03 06:13:37;;;;;;;;;;;;;;;21.32;56.84;99780.63;7396736;19;1619;-47
2023/11/03 06:16:06;;;;;;;;;;;;;;;21.40;56.43;99790.50;7395238;19;1533;-47
2023/11/03 06:18:34;;;;;;;;;;;;;;;21.45;56.32;99786.31;7389131;19;1762;-47
2023/11/03 06:21:03;;;;;;;;;;;;;;;21.35;55.86;99774.06;7393362;19;1845;-51
2023/11/03 06:23:31;;;;;;;;;;;;;;;21.17;57.06;99768.91;7396923;19;1638;-47
2023/11/03 06:26:05;;;;;;;;;;;;;;;21.19;56.86;99773.13;7395145;19;1730;-49
2023/11/03 06:28:33;;;;;;;;;;;;;;;21.21;56.80;99778.34;7396993;19;1667;-47
2023/11/03 06:31:01;;;;;;;;;;;;;;;21.23;56.63;99754.81;7398199;19;1854;-47
2023/11/03 06:33:30;;;;;;;;;;;;;;;21.33;56.38;99760.81;7398287;19;1643;-47
2023/11/03 06:35:59;;;;;;;;;;;;;;;21.43;56.00;99772.22;7397865;19;1723;-47
2023/11/03 06:38:29;;;;;;;;;;;;;;;21.48;56.09;99768.16;7395788;19;1536;-47
2023/11/03 06:40:58;;;;;;;;;;;;;;;21.47;55.82;99759.25;7397482;19;1762;-47
2023/11/03 06:43:30;;;;;;;;;;;;;;;21.53;55.79;99763.09;7391874;19;1536;-47
2023/11/03 06:45:58;;;;;;;;;;;;;;;21.54;55.62;99748.63;7393741;19;1813;-47
2023/11/03 06:48:27;;;;;;;;;;;;;;;21.45;55.75;99745.16;7394509;19;1569;-47
2023/11/03 06:50:55;;;;;;;;;;;;;;;21.48;55.97;99750.16;7393591;19;1891;-48
2023/11/03 06:53:25;;;;;;;;;;;;;;;21.50;55.88;99745.44;7395273;19;1596;-47
2023/11/03 06:55:54;;;;;;;;;;;;;;;21.52;55.73;99747.94;7396491;19;1911;-47
2023/11/03 06:58:22;;;;;;;;;;;;;;;21.53;55.76;99733.50;7397848;19;1619;-47
2023/11/03 07:00:53;;;;;;;;;;;;;;;21.52;55.70;99729.94;7398612;19;1832;-47
2023/11/03 07:03:22;;;;;;;;;;;;;;;21.48;55.79;99738.56;7398158;19;1525;-47
2023/11/03 07:05:50;;;;;;;;;;;;;;;21.41;55.94;99714.22;7397012;19;1793;-48
2023/11/03 07:08:19;;;;;;;;;;;;;;;21.48;55.76;99698.22;7398446;19;1752;-47
2023/11/03 07:10:47;;;;;;;;;;;;;;;21.48;56.02;99706.28;7398106;19;1845;-47
2023/11/03 07:13:15;;;;;;;;;;;;;;;21.42;55.97;99710.47;7398845;19;1750;-47
2023/11/03 07:15:44;;;;;;;;;;;;;;;21.48;55.92;99698.22;7398192;19;1796;-47
2023/11/03 07:18:15;;;;;;;;;;;;;;;21.45;56.13;99711.00;7396276;19;1737;-47
2023/11/03 07:20:43;;;;;;;;;;;;;;;21.41;56.07;99709.66;7384611;19;1847;-47
2023/11/03 07:23:11;;;;;;;;;;;;;;;21.36;56.24;99709.34;7397734;19;1814;-47
2023/11/03 07:25:41;;;;;;;;;;;;;;;21.41;56.25;99698.91;7396801;19;1809;-47
2023/11/03 07:28:09;;;;;;;;;;;;;;;21.44;56.19;99679.72;7397443;19;1695;-47
2023/11/03 07:30:38;;;;;;;;;;;;;;;21.57;55.80;99705.22;7396281;19;1859;-47
2023/11/03 07:33:07;;;;;;;;;;;;;;;21.51;55.88;99693.31;7397353;19;1738;-47
2023/11/03 07:35:38;;;;;;;;;;;;;;;21.50;56.36;99696.19;7396814;19;1720;-47
2023/11/03 07:38:08;;;;;;;;;;;;;;;21.48;56.23;99692.84;7397007;19;1739;-47
2023/11/03 07:40:37;;;;;;;;;;;;;;;21.44;56.51;99690.50;7396994;19;1739;-47
2023/11/03 07:43:05;;;;;;;;;;;;;;;21.48;55.98;99695.53;7396962;19;1553;-47
2023/11/03 07:45:34;;;;;;;;;;;;;;;21.45;56.64;99689.50;7397728;19;1735;-47
2023/11/03 07:48:02;;;;;;;;;;;;;;;21.48;56.28;99700.91;7398041;19;1573;-47
2023/11/03 07:50:30;;;;;;;;;;;;;;;21.55;56.09;99715.34;7396535;19;1837;-47
2023/11/03 07:53:03;;;;;;;;;;;;;;;21.59;56.05;99722.03;7397880;19;1787;-47
2023/11/03 07:55:31;;;;;;;;;;;;;;;21.57;56.27;99721.38;7397239;19;1433;-47
2023/11/03 07:58:00;;;;;;;;;;;;;;;21.60;55.94;99704.84;7394601;19;1708;-47
2023/11/03 08:00:29;;;;;;;;;;;;;;;21.49;56.44;99689.97;7395090;19;1750;-47
2023/11/03 08:02:59;;;;;;;;;;;;;;;21.35;56.66;99686.16;7395321;19;1530;-47
2023/11/03 08:05:28;;;;;;;;;;;;;;;21.50;56.40;99672.81;7398082;19;1006;-47
2023/11/03 08:07:56;;;;;;;;;;;;;;;21.53;56.44;99675.16;7394203;19;1864;-47
2023/11/03 08:10:27;;;;;;;;;;;;;;;21.55;56.23;99694.63;7395279;19;1851;-47
2023/11/03 08:12:55;;;;;;;;;;;;;;;21.55;56.13;99693.81;7394392;19;1460;-48
2023/11/03 08:15:24;;;;;;;;;;;;;;;21.57;56.09;99672.94;7394434;19;1765;-47
2023/11/03 08:17:52;;;;;;;;;;;;;;;21.52;56.18;99694.16;7396416;19;1749;-47
2023/11/03 08:20:20;;;;;;;;;;;;;;;21.44;56.36;99679.72;7381411;19;1280;-47
2023/11/03 08:22:49;;;;;;;;;;;;;;;21.42;56.39;99673.66;7394759;19;1573;-47
2023/11/03 08:25:17;;;;;;;;;;;;;;;21.49;56.37;99678.34;7396301;19;1973;-47
2023/11/03 08:27:48;;;;;;;;;;;;;;;21.43;56.45;99680.75;7393852;19;1603;-47
2023/11/03 08:30:17;;;;;;;;;;;;;;;21.49;56.14;99657.69;7395443;19;1498;-47
2023/11/03 08:32:48;;;;;;;;;;;;;;;21.47;56.08;99658.88;7392265;19;1851;-47
2023/11/03 08:35:17;;;;;;;;;;;;;;;21.50;55.87;99663.91;7393775;19;1572;-47
2023/11/03 08:37:46;;;;;;;;;;;;;;;21.58;56.02;99661.97;7394934;19;1766;-47
2023/11/03 08:40:16;;;;;;;;;;;;;;;21.55;56.00;99650.78;7394594;19;1686;-47
2023/11/03 08:42:46;;;;;;;;;;;;;;;21.38;56.21;99655.38;7395153;19;1660;-47
2023/11/03 08:45:17;;;;;;;;;;;;;;;21.18;56.85;99663.06;7396016;19;1568;-47
2023/11/03 08:47:46;;;;;;;;;;;;;;;21.09;57.03;99639.91;7395027;19;1683;-47
2023/11/03 08:50:15;;;;;;;;;;;;;;;21.02;57.23;99618.28;7396019;19;1595;-47
2023/11/03 08:52:44;;;;;;;;;;;;;;;20.97;57.43;99626.03;7393409;19;1876;-62
2023/11/03 08:55:13;;;;;;;;;;;;;;;20.94;57.45;99621.88;7395672;19;1742;-47
2023/11/03 08:57:42;;;;;;;;;;;;;;;20.97;57.79;99615.28;7393637;19;1584;-47
2023/11/03 09:00:11;;;;;;;;;;;;;;;20.99;57.46;99605.19;7395105;19;1114;-48
2023/11/03 09:02:43;;;;;;;;;;;;;;;20.95;57.74;99604.75;7393055;19;1924;-47
2023/11/03 09:05:11;;;;;;;;;;;;;;;20.95;57.65;99620.00;7392663;19;1791;-47
2023/11/03 09:07:40;;;;;;;;;;;;;;;21.16;57.09;99606.78;7393941;19;1960;-47
2023/11/03 09:10:10;;;;;;;;;;;;;;;21.23;56.75;99598.84;7394246;19;1398;-47
2023/11/03 09:12:40;;;;;;;;;;;;;;;21.21;56.65;99595.50;7392691;19;2065;-47
2023/11/03 09:15:09;;;;;;;;;;;;;;;21.23;56.98;99593.47;7393866;19;1408;-47
2023/11/03 09:17:45;;;;;;;;;;;;;;;21.26;56.73;99598.47;7393934;19;1710;-47
2023/11/03 09:20:17;;;;;;;;;;;;;;;21.33;56.61;99582.47;7380049;19;1429;-47
2023/11/03 09:22:47;;;;;;;;;;;;;;;21.27;56.65;99584.03;7394915;19;1865;-47
2023/11/03 09:25:16;;;;;;;;;;;;;;;21.20;56.77;99573.16;7394421;19;1831;-47
2023/11/03 09:27:44;;;;;;;;;;;;;;;21.29;56.67;99565.88;7391455;19;1888;-48
2023/11/03 09:30:14;;;;;;;;;;;;;;;21.30;56.62;99586.34;7391246;19;1757;-47
2023/11/03 09:32:43;;;;;;;;;;;;;;;21.34;56.56;99563.47;7390814;19;1852;-47
2023/11/03 09:35:12;;;;;;;;;;;;;;;21.39;56.36;99590.66;7392339;19;1438;-48
2023/11/03 09:37:42;;;;;;;;;;;;;;;21.40;56.14;99572.66;7391438;19;1411;-49
2023/11/03 09:40:11;;;;;;;;;;;;;;;21.30;56.68;99559.47;7391110;19;1537;-49
2023/11/03 09:42:40;;;;;;;;;;;;;;;21.35;56.45;99570.53;7393415;19;1606;-50
2023/11/03 09:45:15;;;;;;;;;;;;;;;21.34;56.52;99547.31;7392802;19;1806;-50
2023/11/03 09:47:43;;;;;;;;;;;;;;;21.42;56.26;99557.19;7393184;19;1805;-49
2023/11/03 09:50:12;;;;;;;;;;;;;;;21.35;56.60;99559.78;7393214;19;1022;-50
2023/11/03 09:52:47;;;;;;;;;;;;;;;21.43;56.18;99546.28;7391069;19;1900;-50
2023/11/03 09:55:19;;;;;;;;;;;;;;;21.48;56.24;99505.38;7392617;19;1761;-50
2023/11/03 09:57:49;;;;;;;;;;;;;;;21.46;56.25;99534.31;7392904;19;1652;-50
2023/11/03 10:00:19;;;;;;;;;;;;;;;21.45;56.23;99514.66;7392975;19;1553;-50
2023/11/03 10:02:48;;;;;;;;;;;;;;;21.49;56.29;99522.34;7391583;19;1587;-50
2023/11/03 10:05:16;;;;;;;;;;;;;;;21.52;55.81;99516.63;7378602;19;1457;-50
2023/11/03 10:08:03;;;;;;;;;;;;;;;21.01;55.67;99426.66;7385905;19;1478;-48
2023/11/03 10:10:31;;;;;;;;;;;;;;;21.53;56.03;99521.00;7388419;19;1548;-48
2023/11/03 10:13:00;;;;;;;;;;;;;;;21.51;55.95;99517.66;7387389;19;1842;-48
2023/11/03 10:15:29;;;;;;;;;;;;;;;21.57;56.08;99512.38;7389381;19;1842;-48
2023/11/03 10:17:58;;;;;;;;;;;;;;;21.62;55.78;99517.19;7391800;19;1495;-48
2023/11/03 10:20:27;;;;;;;;;;;;;;;21.53;55.99;99510.25;7384343;19;1388;-47
2023/11/03 10:22:58;;;;;;;;;;;;;;;21.40;56.14;99495.50;7398589;19;1469;-47
2023/11/03 10:25:27;;;;;;;;;;;;;;;21.48;56.02;99489.25;7399057;19;1583;-47
2023/11/03 10:27:56;;;;;;;;;;;;;;;21.47;56.14;99470.59;7396421;19;1532;-47
2023/11/03 10:30:25;;;;;;;;;;;;;;;21.41;56.39;99464.91;7397088;19;1389;-47
2023/11/03 10:32:55;;;;;;;;;;;;;;;21.37;56.31;99454.72;7394641;19;1860;-47
2023/11/03 10:35:24;;;;;;;;;;;;;;;21.40;56.22;99455.16;7395527;19;1371;-47
2023/11/03 10:37:52;;;;;;;;;;;;;;;21.38;56.24;99462.59;7398058;19;1556;-47
2023/11/03 10:40:23;;;;;;;;;;;;;;;21.39;56.04;99442.75;7398442;19;1725;-47
2023/11/03 10:42:52;;;;;;;;;;;;;;;21.50;55.82;99444.19;7398848;19;1827;-47
2023/11/03 10:45:23;;;;;;;;;;;;;;;21.47;55.88;99452.63;7397271;19;1547;-47
2023/11/03 10:48:01;;;;;;;;;;;;;;;21.51;55.68;99445.03;7396294;19;1573;-47
2023/11/03 10:50:34;;;;;;;;;;;;;;;21.46;55.73;99445.56;7397944;19;1723;-47
2023/11/03 10:53:06;;;;;;;;;;;;;;;21.39;56.08;99450.81;7396896;19;1900;-47
2023/11/03 10:55:41;;;;;;;;;;;;;;;21.39;55.92;99437.38;7399432;19;1029;-47
2023/11/03 10:58:09;;;;;;;;;;;;;;;21.43;55.62;99448.63;7393565;19;1490;-47
2023/11/03 11:00:42;;;;;;;;;;;;;;;21.35;55.77;99436.06;7397000;19;1805;-47
2023/11/03 11:03:14;;;;;;;;;;;;;;;21.34;55.92;99449.69;7396137;19;1686;-47
2023/11/03 11:05:46;;;;;;;;;;;;;;;21.38;55.79;99445.63;7392451;19;1801;-47
2023/11/03 11:08:15;;;;;;;;;;;;;;;21.34;55.73;99455.91;7390301;19;1343;-47
2023/11/03 11:10:47;;;;;;;;;;;;;;;21.48;55.25;99454.28;7390501;19;1385;-47
2023/11/03 11:13:17;;;;;;;;;;;;;;;21.43;54.58;99454.84;7392397;19;1877;-47
2023/11/03 11:15:51;;;;;;;;;;;;;;;21.45;54.25;99444.75;7393530;19;1355;-47
2023/11/03 11:18:21;;;;;;;;;;;;;;;21.48;54.21;99432.78;7392859;19;1774;-47
2023/11/03 11:20:53;;;;;;;;;;;;;;;21.49;53.94;99438.97;7379212;19;1679;-47
2023/11/03 11:23:24;;;;;;;;;;;;;;;21.50;53.58;99438.78;7397791;19;1805;-47
2023/11/03 11:25:57;;;;;;;;;;;;;;;21.52;53.36;99419.78;7397013;19;983;-48
2023/11/03 11:28:32;;;;;;;;;;;;;;;21.51;53.65;99413.59;7392401;19;1545;-47
2023/11/03 11:31:01;;;;;;;;;;;;;;;20.91;53.76;99326.63;7393240;19;1480;-47
2023/11/03 11:33:30;;;;;;;;;;;;;;;21.39;53.75;99399.72;7391662;19;1846;-48
2023/11/03 11:35:58;;;;;;;;;;;;;;;21.32;53.77;99377.28;7393123;19;1726;-47
2023/11/03 11:38:27;;;;;;;;;;;;;;;21.31;53.88;99378.31;7391314;19;1402;-47
2023/11/03 11:40:59;;;;;;;;;;;;;;;21.31;53.78;99369.38;7392360;19;1653;-48
2023/11/03 11:43:27;;;;;;;;;;;;;;;21.30;53.94;99373.94;7391539;19;1709;-47
2023/11/03 11:45:57;;;;;;;;;;;;;;;21.25;53.69;99360.22;7392817;19;1859;-48
2023/11/03 11:48:26;;;;;;;;;;;;;;;21.33;53.59;99376.28;7397499;19;1800;-47
2023/11/03 11:50:54;;;;;;;;;;;;;;;21.34;53.62;99372.53;7397123;19;1674;-47
2023/11/03 11:53:22;;;;;;;;;;;;;;;21.39;53.28;99372.84;7394960;19;1843;-47
2023/11/03 11:55:51;;;;;;;;;;;;;;;21.36;53.10;99367.00;7398312;19;1244;-47
2023/11/03 11:58:22;;;;;;;;;;;;;;;21.41;53.33;99362.72;7395709;19;1919;-47
2023/11/03 12:00:50;;;;;;;;;;;;;;;21.36;53.27;99335.53;7397416;19;1496;-47
2023/11/03 12:03:19;;;;;;;;;;;;;;;21.38;53.31;99333.50;7396736;19;1877;-47
2023/11/03 12:05:48;;;;;;;;;;;;;;;21.42;52.71;99307.06;7396132;19;1580;-47
2023/11/03 12:08:16;;;;;;;;;;;;;;;21.36;52.93;99314.03;7396433;19;1808;-47
2023/11/03 12:10:49;;;;;;;;;;;;;;;21.34;52.97;99304.50;7396635;19;1559;-47
2023/11/03 12:13:18;;;;;;;;;;;;;;;21.33;53.11;99292.91;7395338;19;1835;-47
2023/11/03 12:15:49;;;;;;;;;;;;;;;21.26;53.14;99291.97;7396966;19;1263;-47
2023/11/03 12:18:17;;;;;;;;;;;;;;;21.22;53.02;99317.56;7397093;19;1812;-47
2023/11/03 12:21:01;;;;;;;;;;;;;;;21.16;53.13;99313.75;7381237;19;1901;-47
2023/11/03 12:23:31;;;;;;;;;;;;;;;21.26;53.08;99319.69;7396806;19;1901;-47
2023/11/03 12:26:01;;;;;;;;;;;;;;;21.28;52.79;99311.44;7397410;19;1766;-47
2023/11/03 12:28:30;;;;;;;;;;;;;;;21.32;52.69;99290.41;7396030;19;1592;-47
2023/11/03 12:31:04;;;;;;;;;;;;;;;21.26;52.65;99260.53;7395339;19;1539;-47
2023/11/03 12:33:32;;;;;;;;;;;;;;;21.20;52.59;99244.34;7394954;19;1863;-47
2023/11/03 12:36:01;;;;;;;;;;;;;;;21.19;52.74;99248.06;7394715;19;1895;-47
2023/11/03 12:38:30;;;;;;;;;;;;;;;21.14;53.00;99250.47;7394979;19;1538;-47
2023/11/03 12:41:14;;;;;;;;;;;;;;;21.11;52.51;99242.75;7392454;19;1362;-47
2023/11/03 12:43:44;;;;;;;;;;;;;;;21.08;52.88;99237.78;7394937;19;1765;-47
2023/11/03 12:46:15;;;;;;;;;;;;;;;21.02;52.86;99229.41;7395633;19;1639;-47
2023/11/03 12:48:43;;;;;;;;;;;;;;;21.01;52.70;99251.13;7394045;19;1721;-47
2023/11/03 12:51:11;;;;;;;;;;;;;;;21.06;52.64;99249.53;7394887;19;1639;-47
2023/11/03 12:53:49;;;;;;;;;;;;;;;21.05;52.67;99230.91;7393601;19;1849;-47
2023/11/03 12:56:19;;;;;;;;;;;;;;;21.11;52.41;99245.44;7396244;19;1029;-47
2023/11/03 12:58:48;;;;;;;;;;;;;;;21.11;52.44;99273.19;7393844;19;1924;-47
2023/11/03 13:01:20;;;;;;;;;;;;;;;21.10;52.38;99267.97;7395283;19;1580;-48
2023/11/03 13:03:48;;;;;;;;;;;;;;;21.11;52.37;99272.31;7395360;19;1659;-47
2023/11/03 13:06:16;;;;;;;;;;;;;;;21.05;52.49;99260.47;7394505;19;1786;-47
2023/11/03 13:08:45;;;;;;;;;;;;;;;21.03;52.70;99276.78;7395346;19;1723;-47